createdAt,value
2018-02-25T00:00:42.979Z,1027.89
2018-02-25T00:01:42.985Z,1027.88
2018-02-25T00:02:42.996Z,1027.88
2018-02-25T00:03:43.003Z,1027.87
2018-02-25T00:04:43.012Z,1027.86
2018-02-25T00:05:43.028Z,1027.9
2018-02-25T00:06:43.040Z,1027.84
2018-02-25T00:07:43.044Z,1027.83
2018-02-25T00:08:43.050Z,1027.83
2018-02-25T00:09:43.064Z,1027.83
2018-02-25T00:10:43.069Z,1027.81
2018-02-25T00:11:43.082Z,1027.78
2018-02-25T00:12:43.088Z,1027.79
2018-02-25T00:13:43.097Z,1027.72
2018-02-25T00:14:43.109Z,1027.79
2018-02-25T00:16:43.126Z,1027.72
2018-02-25T00:17:43.135Z,1027.72
2018-02-25T00:18:43.147Z,1027.8
2018-02-25T00:19:43.152Z,1027.74
2018-02-25T00:20:43.162Z,1027.76
2018-02-25T00:21:43.175Z,1027.77
2018-02-25T00:22:43.184Z,1027.81
2018-02-25T00:23:43.191Z,1027.78
2018-02-25T00:24:43.200Z,1027.85
2018-02-25T00:25:43.212Z,1027.83
2018-02-25T00:26:43.218Z,1027.78
2018-02-25T00:27:43.227Z,1027.79
2018-02-25T00:28:43.239Z,1027.85
2018-02-25T00:29:43.246Z,1027.78
2018-02-25T00:31:43.268Z,1027.78
2018-02-25T00:32:43.273Z,1027.75
2018-02-25T00:33:43.284Z,1027.82
2018-02-25T00:34:43.292Z,1027.77
2018-02-25T00:35:43.305Z,1027.76
2018-02-25T00:36:43.311Z,1027.75
2018-02-25T00:37:43.324Z,1027.78
2018-02-25T00:38:43.333Z,1027.78
2018-02-25T00:39:43.339Z,1027.76
2018-02-25T00:40:43.350Z,1027.77
2018-02-25T00:41:43.359Z,1027.76
2018-02-25T00:42:43.368Z,1027.8
2018-02-25T00:43:43.375Z,1027.79
2018-02-25T00:44:43.384Z,1027.77
2018-02-25T00:45:43.394Z,1027.79
2018-02-25T00:46:43.508Z,1027.75
2018-02-25T00:47:43.414Z,1027.79
2018-02-25T00:48:43.425Z,1027.79
2018-02-25T00:49:43.435Z,1027.72
2018-02-25T00:50:43.440Z,1027.72
2018-02-25T00:51:43.456Z,1027.7
2018-02-25T00:52:43.459Z,1027.68
2018-02-25T00:53:43.469Z,1027.69
2018-02-25T00:54:43.476Z,1027.74
2018-02-25T00:55:43.485Z,1027.7
2018-02-25T00:56:43.495Z,1027.7
2018-02-25T00:57:43.504Z,1027.73
2018-02-25T00:58:43.512Z,1027.73
2018-02-25T00:59:43.523Z,1027.68
2018-02-25T01:00:43.535Z,1027.67
2018-02-25T01:01:43.544Z,1027.71
2018-02-25T01:03:43.559Z,1027.71
2018-02-25T01:04:43.568Z,1027.71
2018-02-25T01:05:43.576Z,1027.7
2018-02-25T01:06:43.588Z,1027.69
2018-02-25T01:07:43.599Z,1027.69
2018-02-25T01:08:43.610Z,1027.65
2018-02-25T01:09:43.613Z,1027.6
2018-02-25T01:10:43.626Z,1027.61
2018-02-25T01:11:43.632Z,1027.65
2018-02-25T01:12:43.641Z,1027.61
2018-02-25T01:13:43.650Z,1027.66
2018-02-25T01:14:43.663Z,1027.65
2018-02-25T01:15:43.672Z,1027.62
2018-02-25T01:16:43.677Z,1027.61
2018-02-25T01:17:43.686Z,1027.55
2018-02-25T01:19:43.707Z,1027.6
2018-02-25T01:20:43.714Z,1027.61
2018-02-25T01:21:43.723Z,1027.53
2018-02-25T01:22:43.732Z,1027.58
2018-02-25T01:23:43.742Z,1027.54
2018-02-25T01:24:43.752Z,1027.52
2018-02-25T01:25:43.762Z,1027.53
2018-02-25T01:26:43.769Z,1027.56
2018-02-25T01:27:43.780Z,1027.51
2018-02-25T01:28:43.786Z,1027.53
2018-02-25T01:29:43.797Z,1027.57
2018-02-25T01:30:43.809Z,1027.53
2018-02-25T01:31:43.815Z,1027.52
2018-02-25T01:32:43.822Z,1027.52
2018-02-25T01:33:43.835Z,1027.52
2018-02-25T01:35:43.852Z,1027.53
2018-02-25T01:36:43.860Z,1027.53
2018-02-25T01:37:43.869Z,1027.58
2018-02-25T01:38:43.888Z,1027.54
2018-02-25T01:39:43.890Z,1027.57
2018-02-25T01:40:43.895Z,1027.55
2018-02-25T01:41:43.904Z,1027.55
2018-02-25T01:42:43.915Z,1027.57
2018-02-25T01:43:43.925Z,1027.59
2018-02-25T01:44:43.933Z,1027.56
2018-02-25T01:45:43.944Z,1027.62
2018-02-25T01:46:43.949Z,1027.55
2018-02-25T01:47:43.961Z,1027.55
2018-02-25T01:48:43.970Z,1027.52
2018-02-25T01:49:43.976Z,1027.56
2018-02-25T01:51:43.995Z,1027.55
2018-02-25T01:52:44.008Z,1027.54
2018-02-25T01:53:44.013Z,1027.56
2018-02-25T01:54:44.025Z,1027.55
2018-02-25T01:55:44.031Z,1027.52
2018-02-25T01:56:44.042Z,1027.51
2018-02-25T01:57:44.051Z,1027.5
2018-02-25T01:58:44.060Z,1027.52
2018-02-25T01:59:44.070Z,1027.55
2018-02-25T02:00:44.074Z,1027.56
2018-02-25T02:01:44.083Z,1027.53
2018-02-25T02:02:44.094Z,1027.56
2018-02-25T02:03:44.102Z,1027.51
2018-02-25T02:04:44.115Z,1027.56
2018-02-25T02:06:44.131Z,1027.54
2018-02-25T02:07:44.139Z,1027.55
2018-02-25T02:08:44.150Z,1027.5
2018-02-25T02:09:44.160Z,1027.55
2018-02-25T02:10:44.168Z,1027.52
2018-02-25T02:11:44.175Z,1027.51
2018-02-25T02:12:44.184Z,1027.49
2018-02-25T02:13:44.196Z,1027.54
2018-02-25T02:14:44.200Z,1027.59
2018-02-25T02:15:44.212Z,1027.55
2018-02-25T02:16:44.218Z,1027.53
2018-02-25T02:17:44.229Z,1027.58
2018-02-25T02:18:44.238Z,1027.55
2018-02-25T02:19:44.244Z,1027.58
2018-02-25T02:20:44.259Z,1027.57
2018-02-25T02:21:44.264Z,1027.6
2018-02-25T02:22:44.273Z,1027.6
2018-02-25T02:23:44.281Z,1027.57
2018-02-25T02:24:44.291Z,1027.62
2018-02-25T02:25:44.300Z,1027.58
2018-02-25T02:26:44.307Z,1027.62
2018-02-25T02:27:44.319Z,1027.63
2018-02-25T02:28:44.333Z,1027.63
2018-02-25T02:29:44.341Z,1027.59
2018-02-25T02:30:44.443Z,1027.6
2018-02-25T02:31:44.353Z,1027.62
2018-02-25T02:32:44.362Z,1027.59
2018-02-25T02:33:44.369Z,1027.64
2018-02-25T02:34:44.390Z,1027.59
2018-02-25T02:35:44.387Z,1027.57
2018-02-25T02:36:44.397Z,1027.6
2018-02-25T02:38:44.415Z,1027.56
2018-02-25T02:39:44.425Z,1027.54
2018-02-25T02:40:44.435Z,1027.57
2018-02-25T02:41:44.442Z,1027.6
2018-02-25T02:42:44.460Z,1027.6
2018-02-25T02:43:44.459Z,1027.59
2018-02-25T02:44:44.467Z,1027.54
2018-02-25T02:45:44.478Z,1027.65
2018-02-25T02:46:44.489Z,1027.59
2018-02-25T02:47:44.497Z,1027.58
2018-02-25T02:48:44.502Z,1027.55
2018-02-25T02:49:44.514Z,1027.59
2018-02-25T02:50:44.522Z,1027.61
2018-02-25T02:51:44.529Z,1027.64
2018-02-25T02:52:44.538Z,1027.63
2018-02-25T02:54:44.558Z,1027.64
2018-02-25T02:55:44.568Z,1027.64
2018-02-25T02:56:44.576Z,1027.65
2018-02-25T02:57:44.587Z,1027.64
2018-02-25T02:58:44.594Z,1027.64
2018-02-25T02:59:44.608Z,1027.63
2018-02-25T03:00:44.609Z,1027.66
2018-02-25T03:01:44.619Z,1027.68
2018-02-25T03:02:44.626Z,1027.66
2018-02-25T03:03:44.636Z,1027.67
2018-02-25T03:04:44.644Z,1027.71
2018-02-25T03:05:44.657Z,1027.66
2018-02-25T03:06:44.660Z,1027.69
2018-02-25T03:07:44.679Z,1027.66
2018-02-25T03:08:44.682Z,1027.67
2018-02-25T03:10:44.700Z,1027.68
2018-02-25T03:11:44.715Z,1027.69
2018-02-25T03:12:44.713Z,1027.67
2018-02-25T03:13:44.722Z,1027.67
2018-02-25T03:14:44.735Z,1027.65
2018-02-25T03:15:44.741Z,1027.7
2018-02-25T03:16:44.750Z,1027.69
2018-02-25T03:17:44.761Z,1027.66
2018-02-25T03:18:44.766Z,1027.7
2018-02-25T03:19:44.777Z,1027.7
2018-02-25T03:20:44.783Z,1027.68
2018-02-25T03:21:44.796Z,1027.67
2018-02-25T03:22:44.801Z,1027.64
2018-02-25T03:23:44.810Z,1027.59
2018-02-25T03:24:44.821Z,1027.66
2018-02-25T03:26:44.837Z,1027.62
2018-02-25T03:27:44.845Z,1027.6
2018-02-25T03:28:44.854Z,1027.61
2018-02-25T03:29:44.862Z,1027.64
2018-02-25T03:30:44.875Z,1027.64
2018-02-25T03:31:44.880Z,1027.6
2018-02-25T03:32:44.890Z,1027.58
2018-02-25T03:33:44.902Z,1027.59
2018-02-25T03:34:44.908Z,1027.62
2018-02-25T03:35:44.916Z,1027.62
2018-02-25T03:36:44.925Z,1027.56
2018-02-25T03:37:44.933Z,1027.61
2018-02-25T03:38:44.947Z,1027.55
2018-02-25T03:39:44.951Z,1027.6
2018-02-25T03:41:44.970Z,1027.58
2018-02-25T03:42:44.981Z,1027.6
2018-02-25T03:43:44.989Z,1027.6
2018-02-25T03:44:44.999Z,1027.61
2018-02-25T03:45:45.007Z,1027.6
2018-02-25T03:46:45.017Z,1027.58
2018-02-25T03:47:45.022Z,1027.61
2018-02-25T03:48:45.031Z,1027.6
2018-02-25T03:49:45.043Z,1027.56
2018-02-25T03:50:45.047Z,1027.57
2018-02-25T03:51:45.057Z,1027.54
2018-02-25T03:52:45.065Z,1027.59
2018-02-25T03:53:45.074Z,1027.52
2018-02-25T03:54:45.086Z,1027.56
2018-02-25T03:55:45.092Z,1027.57
2018-02-25T03:56:45.104Z,1027.54
2018-02-25T03:57:45.108Z,1027.54
2018-02-25T03:58:45.118Z,1027.5
2018-02-25T03:59:45.128Z,1027.54
2018-02-25T04:00:45.134Z,1027.5
2018-02-25T04:01:45.145Z,1027.48
2018-02-25T04:02:45.152Z,1027.45
2018-02-25T04:03:45.171Z,1027.5
2018-02-25T04:04:45.170Z,1027.49
2018-02-25T04:05:45.182Z,1027.47
2018-02-25T04:06:45.187Z,1027.51
2018-02-25T04:07:45.198Z,1027.48
2018-02-25T04:08:45.208Z,1027.49
2018-02-25T04:09:45.218Z,1027.52
2018-02-25T04:10:45.224Z,1027.5
2018-02-25T04:11:45.235Z,1027.49
2018-02-25T04:13:45.248Z,1027.52
2018-02-25T04:14:45.262Z,1027.51
2018-02-25T04:15:45.266Z,1027.48
2018-02-25T04:16:45.276Z,1027.52
2018-02-25T04:17:45.291Z,1027.48
2018-02-25T04:18:45.293Z,1027.51
2018-02-25T04:19:45.301Z,1027.52
2018-02-25T04:20:45.310Z,1027.51
2018-02-25T04:21:45.320Z,1027.49
2018-02-25T04:22:45.327Z,1027.51
2018-02-25T04:23:45.336Z,1027.51
2018-02-25T04:24:45.346Z,1027.49
2018-02-25T04:25:45.355Z,1027.5
2018-02-25T04:26:45.362Z,1027.46
2018-02-25T04:27:45.374Z,1027.46
2018-02-25T04:29:45.393Z,1027.44
2018-02-25T04:30:45.401Z,1027.42
2018-02-25T04:31:45.405Z,1027.44
2018-02-25T04:32:45.415Z,1027.41
2018-02-25T04:33:45.423Z,1027.43
2018-02-25T04:34:45.433Z,1027.39
2018-02-25T04:35:45.441Z,1027.43
2018-02-25T04:36:45.452Z,1027.41
2018-02-25T04:37:45.457Z,1027.43
2018-02-25T04:38:45.468Z,1027.38
2018-02-25T04:39:45.479Z,1027.42
2018-02-25T04:40:45.485Z,1027.4
2018-02-25T04:41:45.505Z,1027.42
2018-02-25T04:42:45.504Z,1027.46
2018-02-25T04:43:45.511Z,1027.44
2018-02-25T04:45:45.528Z,1027.38
2018-02-25T04:46:45.539Z,1027.41
2018-02-25T04:47:45.551Z,1027.38
2018-02-25T04:48:45.557Z,1027.38
2018-02-25T04:49:45.563Z,1027.46
2018-02-25T04:50:45.574Z,1027.37
2018-02-25T04:51:45.584Z,1027.4
2018-02-25T04:52:45.592Z,1027.39
2018-02-25T04:53:45.597Z,1027.4
2018-02-25T04:54:45.609Z,1027.41
2018-02-25T04:55:45.613Z,1027.41
2018-02-25T04:56:45.623Z,1027.42
2018-02-25T04:57:45.635Z,1027.43
2018-02-25T04:58:45.643Z,1027.37
2018-02-25T04:59:45.666Z,1027.39
2018-02-25T05:01:45.668Z,1027.4
2018-02-25T05:02:45.679Z,1027.36
2018-02-25T05:03:45.683Z,1027.38
2018-02-25T05:04:45.695Z,1027.37
2018-02-25T05:05:45.700Z,1027.39
2018-02-25T05:06:45.710Z,1027.39
2018-02-25T05:07:45.720Z,1027.38
2018-02-25T05:08:45.727Z,1027.41
2018-02-25T05:09:45.735Z,1027.4
2018-02-25T05:10:45.743Z,1027.37
2018-02-25T05:11:45.755Z,1027.37
2018-02-25T05:12:45.765Z,1027.39
2018-02-25T05:13:45.770Z,1027.4
2018-02-25T05:14:45.779Z,1027.36
2018-02-25T05:16:45.800Z,1027.35
2018-02-25T05:17:45.804Z,1027.35
2018-02-25T05:18:45.813Z,1027.34
2018-02-25T05:19:45.821Z,1027.35
2018-02-25T05:20:45.834Z,1027.39
2018-02-25T05:21:45.838Z,1027.4
2018-02-25T05:22:45.848Z,1027.37
2018-02-25T05:23:45.858Z,1027.43
2018-02-25T05:24:45.871Z,1027.45
2018-02-25T05:25:45.874Z,1027.41
2018-02-25T05:26:45.882Z,1027.45
2018-02-25T05:27:45.907Z,1027.44
2018-02-25T05:28:45.903Z,1027.51
2018-02-25T05:29:45.908Z,1027.47
2018-02-25T05:30:45.916Z,1027.51
2018-02-25T05:31:45.925Z,1027.47
2018-02-25T05:32:45.934Z,1027.53
2018-02-25T05:33:45.944Z,1027.52
2018-02-25T05:34:45.955Z,1027.54
2018-02-25T05:35:45.959Z,1027.59
2018-02-25T05:36:46.071Z,1027.61
2018-02-25T05:37:45.983Z,1027.64
2018-02-25T05:38:45.989Z,1027.64
2018-02-25T05:39:45.993Z,1027.57
2018-02-25T05:40:46.002Z,1027.61
2018-02-25T05:41:46.011Z,1027.62
2018-02-25T05:42:46.022Z,1027.64
2018-02-25T05:43:46.030Z,1027.57
2018-02-25T05:44:46.046Z,1027.61
2018-02-25T05:45:46.048Z,1027.66
2018-02-25T05:46:46.056Z,1027.66
2018-02-25T05:48:46.073Z,1027.66
2018-02-25T05:49:46.083Z,1027.61
2018-02-25T05:50:46.089Z,1027.71
2018-02-25T05:51:46.098Z,1027.69
2018-02-25T05:52:46.107Z,1027.7
2018-02-25T05:53:46.115Z,1027.68
2018-02-25T05:54:46.145Z,1027.69
2018-02-25T05:55:46.135Z,1027.73
2018-02-25T05:56:46.138Z,1027.68
2018-02-25T05:57:46.148Z,1027.71
2018-02-25T05:58:46.155Z,1027.7
2018-02-25T05:59:46.164Z,1027.67
2018-02-25T06:00:46.173Z,1027.7
2018-02-25T06:01:46.183Z,1027.69
2018-02-25T06:02:46.190Z,1027.69
2018-02-25T06:04:46.206Z,1027.75
2018-02-25T06:05:46.219Z,1027.73
2018-02-25T06:06:46.230Z,1027.74
2018-02-25T06:07:46.235Z,1027.72
2018-02-25T06:08:46.242Z,1027.72
2018-02-25T06:09:46.247Z,1027.75
2018-02-25T06:10:46.256Z,1027.74
2018-02-25T06:11:46.266Z,1027.76
2018-02-25T06:12:46.277Z,1027.75
2018-02-25T06:13:46.286Z,1027.74
2018-02-25T06:14:46.291Z,1027.7
2018-02-25T06:15:46.301Z,1027.73
2018-02-25T06:16:46.312Z,1027.72
2018-02-25T06:17:46.323Z,1027.74
2018-02-25T06:18:46.324Z,1027.76
2018-02-25T06:20:46.345Z,1027.8
2018-02-25T06:21:46.354Z,1027.8
2018-02-25T06:22:46.360Z,1027.83
2018-02-25T06:23:46.368Z,1027.84
2018-02-25T06:24:46.381Z,1027.83
2018-02-25T06:25:46.388Z,1027.84
2018-02-25T06:26:46.398Z,1027.86
2018-02-25T06:27:46.402Z,1027.86
2018-02-25T06:28:46.410Z,1027.88
2018-02-25T06:29:46.420Z,1027.92
2018-02-25T06:30:46.431Z,1027.95
2018-02-25T06:31:46.440Z,1028.02
2018-02-25T06:32:46.450Z,1027.95
2018-02-25T06:33:46.454Z,1028.03
2018-02-25T06:34:46.463Z,1028.03
2018-02-25T06:36:46.489Z,1028.08
2018-02-25T06:37:46.493Z,1028.06
2018-02-25T06:38:46.505Z,1028.09
2018-02-25T06:39:46.517Z,1028.11
2018-02-25T06:40:46.525Z,1028.14
2018-02-25T06:41:46.536Z,1028.15
2018-02-25T06:42:46.550Z,1028.11
2018-02-25T06:43:46.563Z,1028.14
2018-02-25T06:44:46.573Z,1028.16
2018-02-25T06:45:46.582Z,1028.15
2018-02-25T06:46:46.596Z,1028.11
2018-02-25T06:47:46.610Z,1028.1
2018-02-25T06:48:46.626Z,1028.03
2018-02-25T06:49:46.638Z,1028.01
2018-02-25T06:51:46.661Z,1028.13
2018-02-25T06:52:46.673Z,1028.2
2018-02-25T06:53:46.687Z,1028.18
2018-02-25T06:54:46.700Z,1028.23
2018-02-25T06:55:46.712Z,1028.23
2018-02-25T06:56:46.730Z,1028.23
2018-02-25T06:57:46.740Z,1028.26
2018-02-25T06:58:46.754Z,1028.31
2018-02-25T06:59:46.771Z,1028.32
2018-02-25T07:00:46.787Z,1028.4
2018-02-25T07:01:46.796Z,1028.36
2018-02-25T07:02:46.815Z,1028.35
2018-02-25T07:03:46.829Z,1028.39
2018-02-25T07:04:46.846Z,1028.37
2018-02-25T07:05:46.859Z,1028.43
2018-02-25T07:06:46.874Z,1028.46
2018-02-25T07:07:46.893Z,1028.45
2018-02-25T07:08:46.904Z,1028.47
2018-02-25T07:09:46.921Z,1028.44
2018-02-25T07:10:46.936Z,1028.45
2018-02-25T07:11:46.954Z,1028.43
2018-02-25T07:12:46.974Z,1028.47
2018-02-25T07:13:46.991Z,1028.49
2018-02-25T07:14:47.005Z,1028.46
2018-02-25T07:15:47.024Z,1028.5
2018-02-25T07:16:47.040Z,1028.47
2018-02-25T07:17:47.053Z,1028.5
2018-02-25T07:18:47.074Z,1028.51
2018-02-25T07:19:47.088Z,1028.51
2018-02-25T07:20:47.107Z,1028.53
2018-02-25T07:21:47.125Z,1028.55
2018-02-25T07:23:47.155Z,1028.54
2018-02-25T07:24:47.172Z,1028.52
2018-02-25T07:25:47.190Z,1028.53
2018-02-25T07:26:47.271Z,1028.52
2018-02-25T07:27:47.242Z,1028.55
2018-02-25T07:28:47.242Z,1028.58
2018-02-25T07:29:47.259Z,1028.56
2018-02-25T07:30:47.276Z,1028.62
2018-02-25T07:31:47.360Z,1028.6
2018-02-25T07:32:47.314Z,1028.55
2018-02-25T07:33:47.333Z,1028.52
2018-02-25T07:34:47.346Z,1028.46
2018-02-25T07:35:47.364Z,1028.42
2018-02-25T07:36:47.393Z,1028.34
2018-02-25T07:37:47.397Z,1028.4
2018-02-25T07:39:47.435Z,1028.3
2018-02-25T07:40:47.449Z,1028.33
2018-02-25T07:41:47.470Z,1028.27
2018-02-25T07:42:47.484Z,1028.3
2018-02-25T07:43:47.499Z,1028.3
2018-02-25T07:44:47.517Z,1028.28
2018-02-25T07:45:47.534Z,1028.31
2018-02-25T07:46:47.550Z,1028.25
2018-02-25T07:47:47.569Z,1028.25
2018-02-25T07:48:47.583Z,1028.27
2018-02-25T07:49:47.598Z,1028.26
2018-02-25T07:50:47.621Z,1028.2
2018-02-25T07:51:47.634Z,1028.21
2018-02-25T07:52:47.651Z,1028.16
2018-02-25T07:53:47.664Z,1028.12
2018-02-25T07:55:47.699Z,1028.1
2018-02-25T07:56:47.716Z,1028.12
2018-02-25T07:57:47.784Z,1028.08
2018-02-25T07:58:47.745Z,1028.07
2018-02-25T07:59:47.767Z,1028.13
2018-02-25T08:00:47.781Z,1028.14
2018-02-25T08:01:47.797Z,1028.08
2018-02-25T08:02:47.811Z,1028.1
2018-02-25T08:03:47.828Z,1028.17
2018-02-25T08:04:47.840Z,1028.13
2018-02-25T08:05:47.855Z,1028.1
2018-02-25T08:06:47.873Z,1028.11
2018-02-25T08:07:47.890Z,1028.17
2018-02-25T08:08:47.908Z,1028.11
2018-02-25T08:09:47.916Z,1028.05
2018-02-25T08:11:47.949Z,1028.1
2018-02-25T08:12:47.964Z,1028.11
2018-02-25T08:13:47.977Z,1028.09
2018-02-25T08:14:47.990Z,1028.09
2018-02-25T08:15:48.005Z,1028.12
2018-02-25T08:16:48.022Z,1028.14
2018-02-25T08:17:48.034Z,1028.08
2018-02-25T08:18:48.049Z,1028.09
2018-02-25T08:19:48.070Z,1028.11
2018-02-25T08:20:48.088Z,1028.12
2018-02-25T08:21:48.103Z,1028.11
2018-02-25T08:22:48.106Z,1028.14
2018-02-25T08:23:48.123Z,1028.18
2018-02-25T08:24:48.139Z,1028.11
2018-02-25T08:26:48.164Z,1028.13
2018-02-25T08:27:48.177Z,1028.06
2018-02-25T08:28:48.199Z,1028.08
2018-02-25T08:29:48.207Z,1028.06
2018-02-25T08:30:48.222Z,1028.05
2018-02-25T08:31:48.239Z,1028.05
2018-02-25T08:32:48.248Z,1028.08
2018-02-25T08:33:48.264Z,1028.04
2018-02-25T08:34:48.277Z,1028.03
2018-02-25T08:35:48.296Z,1028.1
2018-02-25T08:36:48.305Z,1028.07
2018-02-25T08:37:48.360Z,1028.07
2018-02-25T08:38:48.336Z,1028.05
2018-02-25T08:39:48.351Z,1028.07
2018-02-25T08:40:48.361Z,1028.07
2018-02-25T08:41:48.380Z,1028.05
2018-02-25T08:42:48.389Z,1028.01
2018-02-25T08:43:48.406Z,1028.07
2018-02-25T08:44:48.420Z,1028.06
2018-02-25T08:45:48.433Z,1028.03
2018-02-25T08:46:48.544Z,1028.06
2018-02-25T08:47:48.459Z,1028.06
2018-02-25T08:48:48.473Z,1028.04
2018-02-25T08:49:48.486Z,1028.11
2018-02-25T08:50:48.503Z,1028.07
2018-02-25T08:51:48.513Z,1028.06
2018-02-25T08:52:48.527Z,1028.08
2018-02-25T08:53:48.541Z,1028.11
2018-02-25T08:54:48.554Z,1028.06
2018-02-25T08:55:48.568Z,1028.07
2018-02-25T08:56:48.586Z,1028.07
2018-02-25T08:58:48.610Z,1028.11
2018-02-25T08:59:48.624Z,1028.07
2018-02-25T09:00:48.636Z,1028.11
2018-02-25T09:01:48.655Z,1028.11
2018-02-25T09:02:48.665Z,1028.08
2018-02-25T09:03:48.679Z,1028.06
2018-02-25T09:04:48.696Z,1028.08
2018-02-25T09:05:48.709Z,1028.1
2018-02-25T09:06:48.720Z,1028.1
2018-02-25T09:07:48.734Z,1028.09
2018-02-25T09:08:48.749Z,1028.08
2018-02-25T09:09:48.760Z,1028.05
2018-02-25T09:10:48.777Z,1028.08
2018-02-25T09:11:48.790Z,1028.04
2018-02-25T09:12:48.801Z,1028.04
2018-02-25T09:14:48.829Z,1028.05
2018-02-25T09:15:48.842Z,1027.98
2018-02-25T09:16:48.860Z,1028.03
2018-02-25T09:17:48.870Z,1028.02
2018-02-25T09:18:48.883Z,1027.97
2018-02-25T09:19:48.904Z,1028
2018-02-25T09:20:48.911Z,1027.95
2018-02-25T09:21:48.934Z,1028.03
2018-02-25T09:22:48.938Z,1027.95
2018-02-25T09:23:48.953Z,1027.92
2018-02-25T09:24:48.971Z,1027.93
2018-02-25T09:25:48.981Z,1028.01
2018-02-25T09:26:48.996Z,1027.95
2018-02-25T09:27:49.015Z,1027.94
2018-02-25T09:28:49.022Z,1027.97
2018-02-25T09:30:49.048Z,1027.91
2018-02-25T09:31:49.065Z,1028
2018-02-25T09:32:49.076Z,1027.91
2018-02-25T09:33:49.093Z,1027.91
2018-02-25T09:34:49.105Z,1027.89
2018-02-25T09:35:49.120Z,1027.87
2018-02-25T09:36:49.131Z,1027.87
2018-02-25T09:37:49.148Z,1027.88
2018-02-25T09:38:49.158Z,1027.85
2018-02-25T09:39:49.171Z,1027.89
2018-02-25T09:40:49.188Z,1027.81
2018-02-25T09:41:49.202Z,1027.85
2018-02-25T09:42:49.215Z,1027.82
2018-02-25T09:43:49.228Z,1027.85
2018-02-25T09:44:49.243Z,1027.79
2018-02-25T09:46:49.268Z,1027.8
2018-02-25T09:47:49.285Z,1027.83
2018-02-25T09:48:49.295Z,1027.78
2018-02-25T09:49:49.314Z,1027.71
2018-02-25T09:50:49.326Z,1027.73
2018-02-25T09:51:49.339Z,1027.75
2018-02-25T09:52:49.349Z,1027.67
2018-02-25T09:53:49.363Z,1027.68
2018-02-25T09:54:49.381Z,1027.66
2018-02-25T09:55:49.390Z,1027.63
2018-02-25T09:56:49.409Z,1027.59
2018-02-25T09:57:49.421Z,1027.55
2018-02-25T09:58:49.437Z,1027.57
2018-02-25T09:59:49.451Z,1027.59
2018-02-25T10:01:49.479Z,1027.58
2018-02-25T10:02:49.538Z,1027.57
2018-02-25T10:03:49.508Z,1027.57
2018-02-25T10:04:49.518Z,1027.6
2018-02-25T10:05:49.534Z,1027.54
2018-02-25T10:06:49.546Z,1027.55
2018-02-25T10:07:49.564Z,1027.56
2018-02-25T10:08:49.580Z,1027.49
2018-02-25T10:09:49.597Z,1027.46
2018-02-25T10:10:49.607Z,1027.43
2018-02-25T10:11:49.619Z,1027.44
2018-02-25T10:12:49.638Z,1027.42
2018-02-25T10:13:49.647Z,1027.42
2018-02-25T10:14:49.665Z,1027.43
2018-02-25T10:15:49.677Z,1027.38
2018-02-25T10:16:49.691Z,1027.41
2018-02-25T10:17:49.706Z,1027.36
2018-02-25T10:18:49.724Z,1027.38
2018-02-25T10:19:49.743Z,1027.33
2018-02-25T10:20:49.749Z,1027.33
2018-02-25T10:21:49.769Z,1027.34
2018-02-25T10:22:49.781Z,1027.35
2018-02-25T10:23:49.794Z,1027.28
2018-02-25T10:24:49.809Z,1027.3
2018-02-25T10:25:49.827Z,1027.3
2018-02-25T10:26:49.838Z,1027.28
2018-02-25T10:27:49.854Z,1027.23
2018-02-25T10:28:49.866Z,1027.25
2018-02-25T10:29:49.887Z,1027.29
2018-02-25T10:30:49.900Z,1027.31
2018-02-25T10:31:49.914Z,1027.31
2018-02-25T10:33:49.943Z,1027.36
2018-02-25T10:34:49.956Z,1027.34
2018-02-25T10:35:49.970Z,1027.28
2018-02-25T10:36:49.983Z,1027.23
2018-02-25T10:37:49.997Z,1027.19
2018-02-25T10:38:50.016Z,1027.15
2018-02-25T10:39:50.029Z,1027.14
2018-02-25T10:40:50.043Z,1027.1
2018-02-25T10:41:50.057Z,1027.12
2018-02-25T10:42:50.067Z,1027.1
2018-02-25T10:43:50.089Z,1027.05
2018-02-25T10:44:50.096Z,1027.07
2018-02-25T10:45:50.111Z,1027.06
2018-02-25T10:46:50.121Z,1027.06
2018-02-25T10:47:50.136Z,1027.03
2018-02-25T10:49:50.160Z,1027
2018-02-25T10:50:50.178Z,1027
2018-02-25T10:51:50.190Z,1027.02
2018-02-25T10:52:50.201Z,1026.98
2018-02-25T10:53:50.216Z,1026.94
2018-02-25T10:54:50.229Z,1026.91
2018-02-25T10:55:50.243Z,1026.92
2018-02-25T10:56:50.255Z,1026.9
2018-02-25T10:57:50.264Z,1026.87
2018-02-25T10:58:50.276Z,1026.87
2018-02-25T10:59:50.293Z,1026.92
2018-02-25T11:00:50.307Z,1026.88
2018-02-25T11:01:50.315Z,1026.87
2018-02-25T11:02:50.328Z,1026.9
2018-02-25T11:03:50.345Z,1026.86
2018-02-25T11:05:50.371Z,1026.84
2018-02-25T11:06:50.379Z,1026.83
2018-02-25T11:07:50.395Z,1026.83
2018-02-25T11:08:50.403Z,1026.8
2018-02-25T11:09:50.418Z,1026.8
2018-02-25T11:10:50.430Z,1026.74
2018-02-25T11:11:50.446Z,1026.79
2018-02-25T11:12:50.457Z,1026.78
2018-02-25T11:13:50.466Z,1026.77
2018-02-25T11:14:50.483Z,1026.75
2018-02-25T11:15:50.490Z,1026.69
2018-02-25T11:16:50.507Z,1026.7
2018-02-25T11:17:50.520Z,1026.68
2018-02-25T11:18:50.529Z,1026.67
2018-02-25T11:19:50.543Z,1026.69
2018-02-25T11:21:50.569Z,1026.64
2018-02-25T11:22:50.582Z,1026.72
2018-02-25T11:23:50.588Z,1026.68
2018-02-25T11:24:50.601Z,1026.64
2018-02-25T11:25:50.616Z,1026.59
2018-02-25T11:26:50.633Z,1026.59
2018-02-25T11:27:50.638Z,1026.57
2018-02-25T11:28:50.650Z,1026.66
2018-02-25T11:29:50.667Z,1026.49
2018-02-25T11:30:50.674Z,1026.51
2018-02-25T11:31:50.686Z,1026.43
2018-02-25T11:32:50.698Z,1026.48
2018-02-25T11:33:50.711Z,1026.44
2018-02-25T11:34:50.724Z,1026.45
2018-02-25T11:36:50.751Z,1026.4
2018-02-25T11:37:50.761Z,1026.44
2018-02-25T11:38:50.816Z,1026.46
2018-02-25T11:39:50.787Z,1026.42
2018-02-25T11:40:50.796Z,1026.4
2018-02-25T11:41:50.808Z,1026.43
2018-02-25T11:42:50.828Z,1026.36
2018-02-25T11:43:50.839Z,1026.37
2018-02-25T11:44:50.847Z,1026.39
2018-02-25T11:45:50.859Z,1026.35
2018-02-25T11:46:50.867Z,1026.35
2018-02-25T11:47:50.879Z,1026.36
2018-02-25T11:48:50.895Z,1026.35
2018-02-25T11:49:50.906Z,1026.32
2018-02-25T11:50:50.914Z,1026.36
2018-02-25T11:51:50.927Z,1026.26
2018-02-25T11:52:50.938Z,1026.25
2018-02-25T11:53:50.950Z,1026.18
2018-02-25T11:54:50.963Z,1026.19
2018-02-25T11:55:50.973Z,1026.2
2018-02-25T11:56:50.990Z,1026.18
2018-02-25T11:57:51.003Z,1026.18
2018-02-25T11:58:51.010Z,1026.13
2018-02-25T11:59:51.026Z,1026.18
2018-02-25T12:00:51.036Z,1026.14
2018-02-25T12:01:51.046Z,1026.22
2018-02-25T12:02:51.061Z,1026.15
2018-02-25T12:03:51.070Z,1026.14
2018-02-25T12:04:51.335Z,1026.16
2018-02-25T12:05:51.094Z,1026.16
2018-02-25T12:06:51.109Z,1026.15
2018-02-25T12:08:51.130Z,1026.2
2018-02-25T12:09:51.143Z,1026.19
2018-02-25T12:10:51.154Z,1026.17
2018-02-25T12:11:51.167Z,1026.17
2018-02-25T12:12:51.179Z,1026.12
2018-02-25T12:13:51.190Z,1026.08
2018-02-25T12:14:51.206Z,1026.13
2018-02-25T12:15:51.214Z,1026.11
2018-02-25T12:16:51.225Z,1026.07
2018-02-25T12:17:51.241Z,1026.08
2018-02-25T12:18:51.250Z,1026.14
2018-02-25T12:19:51.265Z,1026.1
2018-02-25T12:20:51.277Z,1026.03
2018-02-25T12:21:51.284Z,1026.08
2018-02-25T12:22:51.300Z,1026.08
2018-02-25T12:24:51.326Z,1026.06
2018-02-25T12:25:51.333Z,1026.11
2018-02-25T12:26:51.346Z,1026.08
2018-02-25T12:27:51.358Z,1026.1
2018-02-25T12:28:51.368Z,1026.09
2018-02-25T12:29:51.385Z,1026.03
2018-02-25T12:30:51.396Z,1026.06
2018-02-25T12:31:51.405Z,1026.06
2018-02-25T12:32:51.419Z,1026.01
2018-02-25T12:33:51.430Z,1025.97
2018-02-25T12:34:51.442Z,1026
2018-02-25T12:35:51.453Z,1026
2018-02-25T12:36:51.466Z,1026.01
2018-02-25T12:37:51.481Z,1025.95
2018-02-25T12:38:51.489Z,1025.98
2018-02-25T12:40:51.512Z,1025.97
2018-02-25T12:41:51.528Z,1025.97
2018-02-25T12:42:51.538Z,1025.95
2018-02-25T12:43:51.549Z,1026
2018-02-25T12:44:51.561Z,1026
2018-02-25T12:45:51.572Z,1025.97
2018-02-25T12:46:51.587Z,1025.93
2018-02-25T12:47:51.599Z,1025.92
2018-02-25T12:48:51.610Z,1025.91